Decoded Metar for MMTJ (TIJUANA in MEXICO) (IATA:TIJ) | Meteo·Mobile Aviation Weather
aviador You're here:

MMTJ Decoded Metar

TIJUANA in MEXICO
Report Time2018-09-21 16:43:00
UTC Time2018-09-21 17:27:53
Flight Rules mvfr MVFR
Wind270° at 05 kt
W.Decomp.*RWY 27: 4.9 kt HW 1.1 kt LCW
W.Rank270° ranks 3
Current wind is below 270° avg. (7.4)
Visibility6437 m
Phenomena:N/A
Clouds:N/A
Expected CloudBase > 2,000 ft AGL from Temp-Dew spread
CeilingNone
Temp20°C (ISA +6)
Dew Point15°C (73% RH)
AAT19.8°C
QNH1017 hPa
Density Alt1,293 ft
Elevation499 ft
Report Wrong Elevation
Raw Report
METAR MMTJ 211643Z 27005KT 4SM SKC 20/15 A3004 RMK HZY ST W=

Extra information for MMTJ:More info

Metar Taf Metar & Taf Last 4 Metars F.Rules Stats Wind Profile Meteogram Temp Stats Airport Information Weather charts Add Link Nearby VenuesMetar ALERT Operation Metar Decoded Social comments